Time;durP1;ratioP1;P1;durP2;ratioP2;P2;SDS_P1;SDS_P2;PMS_P1;PMS_P2;Temp;Humidity;BMP_temperature;BMP_pressure;BME280_temperature;BME280_humidity;BME280_pressure;Samples;Min_cycle;Max_cycle;Signal;HPM_P1;HPM_P2
2022/01/30 00:01:12;;;;;;;0.10;0.10;;;6.50;99.90;;;;;;5076168;28;20481;-72
2022/01/30 00:03:38;;;;;;;0.00;0.00;;;6.80;99.90;;;;;;5070201;28;20040;-72
2022/01/30 00:06:04;;;;;;;0.00;0.00;;;6.60;99.90;;;;;;5058993;28;20032;-72
2022/01/30 00:08:29;;;;;;;0.10;0.10;;;6.60;99.90;;;;;;5074441;28;20028;-72
2022/01/30 00:11:02;;;;;;;0.10;0.10;;;6.60;99.90;;;;;;5071407;28;20107;-72
2022/01/30 00:13:28;;;;;;;0.10;0.10;;;6.60;99.90;;;;;;5068662;28;20048;-71
2022/01/30 00:15:55;;;;;;;0.10;0.10;;;6.70;99.90;;;;;;5062918;28;20369;-71
2022/01/30 00:23:38;;;;;;;0.00;0.00;;;6.70;99.90;;;;;;5062890;28;20062;-71
2022/01/30 00:26:07;;;;;;;0.10;0.10;;;6.70;99.90;;;;;;5050120;28;20058;-72
2022/01/30 00:28:33;;;;;;;0.10;0.10;;;6.70;99.90;;;;;;5065166;28;20021;-72
2022/01/30 00:30:59;;;;;;;0.00;0.00;;;6.70;99.90;;;;;;5066878;28;20035;-72
2022/01/30 00:33:25;;;;;;;0.10;0.10;;;6.80;99.90;;;;;;5058986;28;20056;-69
2022/01/30 00:35:51;;;;;;;0.10;0.10;;;6.80;99.90;;;;;;5077555;28;20081;-72
2022/01/30 00:38:19;;;;;;;0.10;0.10;;;6.70;99.90;;;;;;5057960;28;20468;-71
2022/01/30 00:40:46;;;;;;;0.10;0.10;;;6.70;99.90;;;;;;5055204;28;20529;-71
2022/01/30 00:43:12;;;;;;;0.10;0.10;;;6.70;99.90;;;;;;5068383;28;20112;-72
2022/01/30 00:45:38;;;;;;;0.10;0.10;;;6.70;99.90;;;;;;5062885;28;20027;-72
2022/01/30 00:48:05;;;;;;;0.10;0.10;;;6.70;99.90;;;;;;5070744;28;20028;-72
2022/01/30 00:50:31;;;;;;;0.10;0.10;;;6.70;99.90;;;;;;5057238;28;20036;-71
2022/01/30 00:52:57;;;;;;;0.10;0.10;;;6.80;99.90;;;;;;5060318;28;20504;-71
2022/01/30 00:55:26;;;;;;;0.10;0.10;;;6.80;99.90;;;;;;5065861;28;20099;-71
2022/01/30 00:57:55;;;;;;;0.85;0.85;;;6.90;99.90;;;;;;5075651;28;20032;-71
2022/01/30 01:00:26;;;;;;;0.10;0.10;;;6.80;99.90;;;;;;5074479;28;20161;-71
2022/01/30 01:02:51;;;;;;;0.10;0.10;;;6.80;99.90;;;;;;5076996;28;20020;-71
2022/01/30 01:05:18;;;;;;;0.10;0.10;;;6.80;99.90;;;;;;5052709;28;20098;-70
2022/01/30 01:07:47;;;;;;;0.10;0.10;;;6.80;99.90;;;;;;5078665;28;20028;-71
2022/01/30 01:10:33;;;;;;;0.10;0.10;;;6.80;99.90;;;;;;5060258;28;20048;-70
2022/01/30 01:23:57;;;;;;;0.03;0.03;;;7.00;99.90;;;;;;5074953;28;20052;-74
2022/01/30 01:26:24;;;;;;;0.10;0.10;;;7.10;99.90;;;;;;5093757;28;20507;-72
2022/01/30 01:28:50;;;;;;;0.00;0.00;;;7.10;99.90;;;;;;5082959;28;20165;-73
2022/01/30 01:31:16;;;;;;;0.00;0.00;;;7.10;99.90;;;;;;5080012;28;20058;-72
2022/01/30 01:36:14;;;;;;;0.10;0.10;;;7.00;99.90;;;;;;5088133;28;20539;-73
2022/01/30 01:38:39;;;;;;;0.10;0.10;;;7.10;99.90;;;;;;5082229;28;20028;-73
2022/01/30 01:41:05;;;;;;;0.10;0.10;;;7.10;99.90;;;;;;5091455;28;20051;-73
2022/01/30 01:43:32;;;;;;;0.10;0.10;;;7.10;99.90;;;;;;5091944;28;20500;-71
2022/01/30 01:45:59;;;;;;;0.10;0.10;;;7.20;99.90;;;;;;5090769;28;20073;-72
2022/01/30 01:48:25;;;;;;;0.10;0.10;;;7.20;99.90;;;;;;5085015;28;20078;-73
2022/01/30 01:51:05;;;;;;;0.10;0.10;;;7.10;99.90;;;;;;5087162;28;20024;-72
2022/01/30 01:53:31;;;;;;;0.10;0.10;;;7.10;99.90;;;;;;5073568;28;20399;-72
2022/01/30 01:55:57;;;;;;;0.10;0.10;;;7.00;99.90;;;;;;5086321;28;20031;-72
2022/01/30 01:58:24;;;;;;;0.10;0.10;;;7.10;99.90;;;;;;5083791;28;20025;-74
2022/01/30 02:00:50;;;;;;;0.10;0.10;;;7.00;99.90;;;;;;5089034;28;20108;-73
2022/01/30 02:03:18;;;;;;;0.05;0.05;;;7.00;99.90;;;;;;5092391;28;20043;-73
2022/01/30 02:05:50;;;;;;;0.10;0.10;;;7.00;99.90;;;;;;5088058;28;20111;-72
2022/01/30 02:24:49;;;;;;;0.10;0.10;;;7.10;99.90;;;;;;5095692;28;20044;-72
2022/01/30 02:27:18;;;;;;;0.10;0.10;;;7.00;99.90;;;;;;5072625;28;20127;-73
2022/01/30 02:29:45;;;;;;;0.00;0.00;;;7.10;99.90;;;;;;5090649;28;20292;-72
2022/01/30 02:32:11;;;;;;;0.30;0.30;;;7.10;99.90;;;;;;5084871;28;20062;-72
2022/01/30 02:34:37;;;;;;;1.63;1.55;;;7.10;99.90;;;;;;5085022;28;20469;-72
2022/01/30 02:37:02;;;;;;;0.10;0.10;;;7.10;99.90;;;;;;5089665;28;20043;-72
2022/01/30 02:39:28;;;;;;;0.10;0.10;;;7.00;99.90;;;;;;5089515;28;20031;-71
2022/01/30 02:41:55;;;;;;;0.10;0.10;;;7.10;99.90;;;;;;5089607;28;20408;-71
2022/01/30 02:46:56;;;;;;;0.10;0.10;;;7.30;99.90;;;;;;5082407;28;20025;-72
2022/01/30 02:51:58;;;;;;;0.10;0.10;;;7.20;99.90;;;;;;5087001;28;20490;-72
2022/01/30 02:54:26;;;;;;;0.10;0.10;;;7.20;99.90;;;;;;5089619;28;20042;-72
2022/01/30 02:56:51;;;;;;;0.10;0.10;;;7.20;99.90;;;;;;5070976;28;20031;-72
2022/01/30 02:59:19;;;;;;;0.10;0.10;;;7.40;99.90;;;;;;5089556;28;20417;-72
2022/01/30 03:01:44;;;;;;;0.10;0.10;;;7.50;99.90;;;;;;5087920;28;20103;-73
2022/01/30 03:04:10;;;;;;;0.10;0.10;;;7.60;99.90;;;;;;5089586;28;20448;-72
2022/01/30 03:06:37;;;;;;;0.10;0.10;;;7.70;99.90;;;;;;5089848;28;20438;-71
2022/01/30 03:09:05;;;;;;;0.10;0.10;;;7.70;99.90;;;;;;5086662;28;20024;-72
2022/01/30 03:11:31;;;;;;;0.10;0.10;;;7.70;99.90;;;;;;5083016;28;20043;-73
2022/01/30 03:13:57;;;;;;;0.10;0.10;;;7.70;99.90;;;;;;5087528;28;20060;-73
2022/01/30 03:16:23;;;;;;;0.10;0.10;;;7.80;99.90;;;;;;5089949;28;20035;-73
2022/01/30 03:18:49;;;;;;;0.10;0.10;;;7.80;99.90;;;;;;5095301;28;20135;-73
2022/01/30 03:21:15;;;;;;;0.08;0.08;;;7.80;99.90;;;;;;5089766;28;20081;-72
2022/01/30 03:23:41;;;;;;;0.10;0.10;;;7.80;99.90;;;;;;5079637;28;20024;-71
2022/01/30 03:26:08;;;;;;;0.10;0.10;;;7.80;99.90;;;;;;5089861;28;20020;-73
2022/01/30 03:28:34;;;;;;;0.10;0.10;;;7.70;99.90;;;;;;5068740;28;20459;-73
2022/01/30 03:31:04;;;;;;;0.10;0.10;;;7.70;99.90;;;;;;5077766;28;20056;-71
2022/01/30 03:33:30;;;;;;;0.10;0.10;;;7.70;99.90;;;;;;5075824;28;20092;-71
2022/01/30 03:35:55;;;;;;;0.05;0.05;;;7.70;99.90;;;;;;5083087;28;20035;-72
2022/01/30 03:38:21;;;;;;;0.10;0.10;;;7.60;99.90;;;;;;5085440;28;20024;-72
2022/01/30 03:40:49;;;;;;;0.00;0.00;;;7.70;99.90;;;;;;5082097;28;20020;-72
2022/01/30 03:43:15;;;;;;;0.10;0.10;;;7.70;99.90;;;;;;5089854;28;20115;-72
2022/01/30 03:45:41;;;;;;;0.10;0.10;;;7.70;99.90;;;;;;5087614;28;20031;-73
2022/01/30 03:48:07;;;;;;;0.10;0.10;;;7.70;99.90;;;;;;5088454;28;20032;-72
2022/01/30 03:50:33;;;;;;;0.10;0.10;;;7.70;99.90;;;;;;5089678;28;20354;-73
2022/01/30 03:52:59;;;;;;;0.10;0.10;;;7.70;99.90;;;;;;5084382;28;20016;-71
2022/01/30 03:55:25;;;;;;;0.10;0.10;;;7.70;99.90;;;;;;5087654;28;20027;-72
2022/01/30 03:57:51;;;;;;;0.10;0.10;;;7.70;99.90;;;;;;5082819;28;20020;-72
2022/01/30 04:00:18;;;;;;;0.10;0.10;;;7.70;99.90;;;;;;5088814;28;20028;-73
2022/01/30 04:02:44;;;;;;;0.10;0.10;;;7.70;99.90;;;;;;5087543;28;20107;-73
2022/01/30 04:05:09;;;;;;;0.10;0.10;;;7.70;99.90;;;;;;5089796;28;20082;-72
2022/01/30 04:07:35;;;;;;;0.10;0.10;;;7.70;99.90;;;;;;5087837;28;20064;-73
2022/01/30 04:10:04;;;;;;;0.10;0.10;;;7.70;99.90;;;;;;5085977;28;20043;-73
2022/01/30 04:12:30;;;;;;;0.10;0.10;;;7.70;99.90;;;;;;5085513;28;20039;-73
2022/01/30 04:14:56;;;;;;;0.10;0.10;;;7.80;99.90;;;;;;5083952;28;20032;-72
2022/01/30 04:17:22;;;;;;;0.00;0.00;;;7.70;99.90;;;;;;5089732;28;20024;-72
2022/01/30 04:19:48;;;;;;;0.10;0.10;;;7.70;99.90;;;;;;5085322;28;20036;-72
2022/01/30 04:22:14;;;;;;;0.10;0.10;;;7.70;99.90;;;;;;5088326;28;20035;-72
2022/01/30 04:24:40;;;;;;;0.10;0.10;;;7.80;99.90;;;;;;5089378;28;20028;-72
2022/01/30 04:27:06;;;;;;;0.00;0.00;;;7.70;99.90;;;;;;5086464;28;20075;-72
2022/01/30 04:29:32;;;;;;;0.10;0.10;;;7.70;99.90;;;;;;5069728;28;20059;-74
2022/01/30 04:31:58;;;;;;;0.10;0.10;;;7.70;99.90;;;;;;5088280;28;20020;-73
2022/01/30 04:34:26;;;;;;;0.00;0.00;;;7.70;99.90;;;;;;5088351;28;20024;-73
2022/01/30 04:37:01;;;;;;;0.03;0.03;;;7.70;99.90;;;;;;5085892;28;20043;-71
2022/01/30 04:42:23;;;;;;;0.00;0.00;;;7.60;99.90;;;;;;5083159;28;20543;-71
2022/01/30 05:06:08;;;;;;;0.00;0.00;;;7.40;99.90;;;;;;5088169;28;20084;-71
2022/01/30 05:08:34;;;;;;;0.10;0.10;;;7.40;99.90;;;;;;5087339;28;20024;-72
2022/01/30 05:11:04;;;;;;;0.10;0.10;;;7.40;99.90;;;;;;5094544;28;20114;-72
2022/01/30 05:13:32;;;;;;;0.10;0.10;;;7.30;99.90;;;;;;5088732;28;20504;-73
2022/01/30 05:15:58;;;;;;;0.10;0.10;;;7.30;99.90;;;;;;5084300;28;20028;-71
2022/01/30 05:18:26;;;;;;;0.10;0.10;;;7.30;99.90;;;;;;5085259;28;20504;-73
2022/01/30 05:20:52;;;;;;;0.00;0.00;;;7.20;99.90;;;;;;5083935;28;20176;-72
2022/01/30 05:23:18;;;;;;;0.10;0.10;;;7.20;99.90;;;;;;5079590;28;20478;-72
2022/01/30 05:25:49;;;;;;;0.10;0.10;;;7.20;99.90;;;;;;5081284;28;20025;-73
2022/01/30 05:28:16;;;;;;;1.95;1.85;;;7.10;99.90;;;;;;5084541;28;20070;-72
2022/01/30 05:30:43;;;;;;;0.10;0.10;;;7.10;99.90;;;;;;5088984;28;20156;-73
2022/01/30 05:33:09;;;;;;;0.00;0.00;;;7.00;99.90;;;;;;5090439;28;20027;-73
2022/01/30 05:35:35;;;;;;;0.10;0.10;;;7.00;99.90;;;;;;5090645;28;20098;-72
2022/01/30 05:38:03;;;;;;;0.10;0.10;;;7.10;99.90;;;;;;5085747;28;20504;-72
2022/01/30 05:40:29;;;;;;;0.10;0.10;;;7.10;99.90;;;;;;5089876;28;20051;-74
2022/01/30 05:42:55;;;;;;;0.10;0.10;;;7.10;99.90;;;;;;5091347;28;20024;-71
2022/01/30 05:45:30;;;;;;;0.10;0.10;;;7.10;99.90;;;;;;5092444;28;20046;-73
2022/01/30 05:48:03;;;;;;;0.10;0.10;;;7.10;99.90;;;;;;5088060;28;20020;-72
2022/01/30 05:50:29;;;;;;;0.10;0.10;;;7.20;99.90;;;;;;5089150;28;20028;-73
2022/01/30 05:52:55;;;;;;;0.10;0.10;;;7.10;99.90;;;;;;5092162;28;20020;-71
2022/01/30 05:55:21;;;;;;;0.10;0.10;;;7.10;99.90;;;;;;5091847;28;20047;-71
2022/01/30 05:57:47;;;;;;;0.10;0.10;;;7.10;99.90;;;;;;5088829;28;20512;-72
2022/01/30 06:00:15;;;;;;;0.00;0.00;;;7.10;99.90;;;;;;5091553;28;20105;-72
2022/01/30 06:02:42;;;;;;;0.00;0.00;;;7.10;99.90;;;;;;5091813;28;20032;-71
2022/01/30 06:05:08;;;;;;;0.10;0.10;;;7.10;99.90;;;;;;5090804;28;20039;-71
2022/01/30 06:07:37;;;;;;;0.00;0.00;;;7.10;99.90;;;;;;5092653;28;20051;-71
2022/01/30 06:10:03;;;;;;;0.10;0.10;;;7.00;99.90;;;;;;5094281;28;20024;-73
2022/01/30 06:12:29;;;;;;;0.10;0.10;;;7.00;99.90;;;;;;5080624;28;20029;-72
2022/01/30 06:14:55;;;;;;;0.10;0.10;;;7.00;99.90;;;;;;5086675;28;20409;-73
2022/01/30 06:17:21;;;;;;;0.10;0.10;;;6.40;99.90;;;;;;5082566;28;20056;-72
2022/01/30 06:19:47;;;;;;;0.10;0.10;;;7.00;99.90;;;;;;5088471;28;20595;-72
2022/01/30 06:22:12;;;;;;;0.00;0.00;;;7.00;99.90;;;;;;5090607;28;20038;-72
2022/01/30 06:24:38;;;;;;;0.10;0.10;;;7.00;99.90;;;;;;5085837;28;20477;-72
2022/01/30 06:27:04;;;;;;;0.10;0.10;;;6.90;99.90;;;;;;5088185;28;20036;-72
2022/01/30 06:29:29;;;;;;;0.10;0.10;;;6.90;99.90;;;;;;5090615;28;20082;-73
2022/01/30 06:31:55;;;;;;;0.10;0.10;;;6.80;99.90;;;;;;5090408;28;20016;-72
2022/01/30 06:34:21;;;;;;;0.10;0.10;;;6.70;99.90;;;;;;5072950;28;20089;-73
2022/01/30 06:36:46;;;;;;;0.10;0.10;;;6.70;99.90;;;;;;5087381;28;20047;-72
2022/01/30 06:39:12;;;;;;;0.10;0.10;;;6.70;99.90;;;;;;5089824;28;20101;-72
2022/01/30 06:41:37;;;;;;;0.10;0.10;;;6.60;99.90;;;;;;5089623;28;20032;-72
2022/01/30 06:44:05;;;;;;;0.10;0.10;;;6.50;99.90;;;;;;5086341;28;20530;-72
2022/01/30 06:46:30;;;;;;;0.10;0.10;;;6.50;99.90;;;;;;5071009;28;20413;-72
2022/01/30 06:48:56;;;;;;;0.10;0.10;;;6.50;99.90;;;;;;5089702;28;20035;-72
2022/01/30 06:51:22;;;;;;;0.10;0.10;;;6.40;99.90;;;;;;5089893;28;20107;-72
2022/01/30 06:53:47;;;;;;;0.10;0.10;;;6.40;99.90;;;;;;5084066;28;20488;-73
2022/01/30 06:56:13;;;;;;;0.10;0.10;;;6.30;99.90;;;;;;5089786;28;20028;-73
2022/01/30 06:58:38;;;;;;;0.20;0.20;;;6.20;99.90;;;;;;5091007;28;20028;-73
2022/01/30 07:01:04;;;;;;;0.10;0.10;;;6.20;99.90;;;;;;5082419;28;20906;-73
2022/01/30 07:03:30;;;;;;;0.10;0.10;;;6.10;99.90;;;;;;5088853;28;20157;-74
2022/01/30 07:05:55;;;;;;;0.10;0.10;;;6.10;99.90;;;;;;5082979;28;20474;-72
2022/01/30 07:08:21;;;;;;;0.10;0.10;;;6.10;99.90;;;;;;5087210;28;20098;-72
2022/01/30 07:10:47;;;;;;;0.10;0.10;;;6.20;99.90;;;;;;5089055;28;20431;-72
2022/01/30 07:13:12;;;;;;;0.10;0.10;;;6.20;99.90;;;;;;5090481;28;20590;-74
2022/01/30 07:15:41;;;;;;;0.10;0.10;;;6.20;99.90;;;;;;5079572;28;20031;-72
2022/01/30 07:18:07;;;;;;;0.10;0.10;;;6.10;99.90;;;;;;5086925;22;20052;-71
2022/01/30 07:20:32;;;;;;;0.10;0.10;;;6.10;99.90;;;;;;5061867;28;20029;-69
2022/01/30 07:22:58;;;;;;;0.10;0.10;;;6.00;99.90;;;;;;5074265;28;20024;-69
2022/01/30 07:25:24;;;;;;;0.10;0.10;;;6.00;99.90;;;;;;5078133;28;20040;-70
2022/01/30 07:27:49;;;;;;;0.10;0.10;;;6.10;99.90;;;;;;5073057;28;20458;-70
2022/01/30 07:30:15;;;;;;;0.10;0.10;;;6.10;99.90;;;;;;5061000;28;20032;-70
2022/01/30 07:32:41;;;;;;;0.10;0.10;;;6.10;99.90;;;;;;5055912;28;21686;-70
2022/01/30 07:35:07;;;;;;;0.10;0.10;;;6.10;99.90;;;;;;5055426;28;20517;-71
2022/01/30 07:37:34;;;;;;;0.10;0.10;;;6.10;99.90;;;;;;5052108;28;20067;-71
2022/01/30 07:40:01;;;;;;;0.10;0.10;;;6.20;99.90;;;;;;5049877;28;20174;-71
2022/01/30 07:42:27;;;;;;;0.05;0.05;;;6.20;99.90;;;;;;5051010;28;20052;-71
2022/01/30 07:44:53;;;;;;;0.10;0.10;;;6.30;99.90;;;;;;5047378;28;20056;-70
2022/01/30 07:47:20;;;;;;;0.10;0.10;;;6.30;99.90;;;;;;5045836;28;20029;-71
2022/01/30 07:49:51;;;;;;;0.03;0.03;;;6.30;99.90;;;;;;5031412;28;20120;-71
2022/01/30 07:52:20;;;;;;;0.10;0.10;;;6.30;99.90;;;;;;5049398;28;20110;-70
2022/01/30 07:54:47;;;;;;;0.10;0.10;;;6.40;99.90;;;;;;5032256;28;20628;-70
2022/01/30 07:57:12;;;;;;;0.10;0.10;;;6.40;99.90;;;;;;5053256;28;20496;-70
2022/01/30 07:59:38;;;;;;;4.05;3.72;;;6.40;99.90;;;;;;5055075;28;20025;-70
2022/01/30 08:02:04;;;;;;;0.00;0.00;;;6.40;99.90;;;;;;5058223;28;20048;-70
2022/01/30 08:04:29;;;;;;;0.10;0.10;;;6.30;99.90;;;;;;5049862;28;20543;-70
2022/01/30 08:06:56;;;;;;;0.10;0.10;;;6.20;99.90;;;;;;5049615;28;20072;-70
2022/01/30 08:09:21;;;;;;;0.10;0.10;;;6.20;99.90;;;;;;5054326;28;20036;-70
2022/01/30 08:11:47;;;;;;;0.10;0.10;;;6.10;99.90;;;;;;5052869;28;20024;-70
2022/01/30 08:14:13;;;;;;;0.10;0.10;;;6.10;99.90;;;;;;5051455;28;20027;-70
2022/01/30 08:16:39;;;;;;;0.10;0.10;;;6.00;99.90;;;;;;5052745;28;20147;-70
2022/01/30 08:19:05;;;;;;;0.10;0.10;;;6.10;99.90;;;;;;5047228;28;20044;-69
2022/01/30 08:21:31;;;;;;;0.10;0.10;;;6.10;99.90;;;;;;5057457;28;20508;-70
2022/01/30 08:23:57;;;;;;;0.10;0.10;;;6.10;99.90;;;;;;5050242;28;20453;-70
2022/01/30 08:26:22;;;;;;;0.10;0.10;;;6.10;99.90;;;;;;5052183;28;20047;-69
2022/01/30 08:28:48;;;;;;;0.10;0.10;;;6.10;99.90;;;;;;5048499;28;20033;-70
2022/01/30 08:31:14;;;;;;;0.10;0.10;;;6.10;99.90;;;;;;5052081;28;20504;-70
2022/01/30 08:33:39;;;;;;;0.10;0.10;;;6.10;99.90;;;;;;5050581;28;20028;-70
2022/01/30 08:36:05;;;;;;;0.10;0.10;;;6.10;99.90;;;;;;5038441;28;20347;-70
2022/01/30 08:38:31;;;;;;;0.10;0.10;;;6.20;99.90;;;;;;5048095;28;20446;-70
2022/01/30 08:40:57;;;;;;;0.10;0.10;;;6.10;99.90;;;;;;5045824;28;20029;-71
2022/01/30 08:43:22;;;;;;;0.10;0.10;;;6.20;99.90;;;;;;5049350;28;20025;-71
2022/01/30 08:45:50;;;;;;;0.10;0.10;;;6.10;99.90;;;;;;5052240;28;20506;-70
2022/01/30 08:48:16;;;;;;;0.10;0.10;;;6.20;99.90;;;;;;5048391;28;20136;-70
2022/01/30 08:50:42;;;;;;;0.10;0.10;;;6.20;99.90;;;;;;5032343;28;20414;-70
2022/01/30 08:53:07;;;;;;;0.10;0.10;;;6.20;99.90;;;;;;5049528;28;20025;-70
2022/01/30 08:55:33;;;;;;;0.10;0.10;;;6.20;99.90;;;;;;5049724;28;20056;-69
2022/01/30 08:58:00;;;;;;;0.10;0.10;;;6.20;99.90;;;;;;5049002;28;20086;-68
2022/01/30 09:00:26;;;;;;;0.10;0.10;;;6.10;99.90;;;;;;5050341;28;20025;-70
2022/01/30 09:02:51;;;;;;;0.10;0.10;;;6.10;99.90;;;;;;5049972;28;20037;-69
2022/01/30 09:05:17;;;;;;;0.10;0.10;;;6.30;99.90;;;;;;5048155;28;20453;-70
2022/01/30 09:07:43;;;;;;;0.10;0.10;;;6.40;99.90;;;;;;5048850;28;20922;-69
2022/01/30 09:10:11;;;;;;;0.10;0.10;;;6.40;99.90;;;;;;5053725;28;20033;-70
2022/01/30 09:12:37;;;;;;;0.10;0.10;;;6.40;99.90;;;;;;5054137;28;20036;-71
2022/01/30 09:15:06;;;;;;;0.10;0.10;;;6.40;99.90;;;;;;5069896;28;20048;-69
2022/01/30 09:17:32;;;;;;;0.10;0.10;;;6.30;99.90;;;;;;5073804;28;20051;-71
2022/01/30 09:19:58;;;;;;;0.30;0.30;;;6.30;99.90;;;;;;5049277;28;20513;-70
2022/01/30 09:22:23;;;;;;;0.10;0.10;;;6.20;99.90;;;;;;5036619;28;20056;-70
2022/01/30 09:24:49;;;;;;;0.10;0.10;;;6.30;99.90;;;;;;5059725;28;20079;-71
2022/01/30 09:27:15;;;;;;;0.10;0.10;;;6.40;99.90;;;;;;5056072;28;20033;-71
2022/01/30 09:29:42;;;;;;;0.10;0.10;;;6.50;99.90;;;;;;5060921;28;20132;-70
2022/01/30 09:32:08;;;;;;;0.10;0.10;;;6.60;99.90;;;;;;5053963;28;20028;-72
2022/01/30 09:34:34;;;;;;;0.10;0.10;;;6.60;99.90;;;;;;5054087;28;20025;-71
2022/01/30 09:37:00;;;;;;;0.85;0.85;;;6.60;99.90;;;;;;5058674;28;20075;-71
2022/01/30 09:39:26;;;;;;;0.10;0.10;;;6.50;99.90;;;;;;5052386;28;20024;-71
2022/01/30 09:41:54;;;;;;;0.10;0.10;;;6.40;99.90;;;;;;5048969;28;20536;-69
2022/01/30 09:44:21;;;;;;;0.10;0.10;;;6.60;99.90;;;;;;5051362;28;20040;-67
2022/01/30 09:46:49;;;;;;;0.10;0.10;;;7.00;99.90;;;;;;5042764;28;20021;-67
2022/01/30 09:49:19;;;;;;;0.10;0.10;;;7.30;99.90;;;;;;5052007;28;20029;-71
2022/01/30 09:51:45;;;;;;;0.10;0.10;;;7.30;99.90;;;;;;5025777;28;20052;-71
2022/01/30 09:54:12;;;;;;;0.03;0.03;;;7.10;99.90;;;;;;5051531;28;20063;-72
2022/01/30 09:56:38;;;;;;;0.22;0.22;;;7.10;99.90;;;;;;5032774;28;20043;-71
2022/01/30 09:59:05;;;;;;;0.10;0.10;;;7.00;99.90;;;;;;5051010;28;20036;-71
2022/01/30 10:01:33;;;;;;;0.05;0.05;;;6.90;99.90;;;;;;5055918;28;20053;-71
2022/01/30 10:04:00;;;;;;;0.10;0.10;;;6.90;99.90;;;;;;5059765;28;20095;-71
2022/01/30 10:06:31;;;;;;;0.10;0.10;;;6.80;99.90;;;;;;5050208;28;20060;-71
2022/01/30 10:08:59;;;;;;;0.10;0.10;;;6.80;99.90;;;;;;5049725;28;20139;-72
2022/01/30 10:12:00;;;;;;;0.10;0.10;;;6.80;99.90;;;;;;5055882;28;20021;-71
2022/01/30 10:14:26;;;;;;;0.10;0.10;;;6.90;99.90;;;;;;5051474;28;20021;-71
2022/01/30 10:16:51;;;;;;;0.10;0.10;;;7.10;99.90;;;;;;5045765;28;20437;-70
2022/01/30 10:19:23;;;;;;;0.10;0.10;;;7.20;99.90;;;;;;5056463;28;20113;-70
2022/01/30 10:22:04;;;;;;;0.10;0.10;;;7.20;99.90;;;;;;5041566;28;20029;-71
2022/01/30 10:24:35;;;;;;;0.10;0.10;;;7.30;99.90;;;;;;5051338;28;20033;-71
2022/01/30 10:27:21;;;;;;;0.10;0.10;;;7.30;99.90;;;;;;5051934;28;20025;-72
2022/01/30 10:29:59;;;;;;;0.10;0.10;;;7.50;99.90;;;;;;5052735;28;20029;-72
2022/01/30 10:32:26;;;;;;;0.10;0.10;;;7.50;99.90;;;;;;5049053;28;20032;-72
2022/01/30 10:35:01;;;;;;;0.10;0.10;;;7.40;99.90;;;;;;5055088;28;20173;-72
2022/01/30 10:37:27;;;;;;;1.05;1.05;;;7.30;99.90;;;;;;5030475;28;20028;-72
2022/01/30 10:39:52;;;;;;;0.43;0.43;;;7.30;99.90;;;;;;5048494;28;20032;-72
2022/01/30 10:42:35;;;;;;;0.10;0.10;;;7.20;99.90;;;;;;5049711;28;20028;-72
2022/01/30 10:45:02;;;;;;;0.10;0.10;;;7.20;99.90;;;;;;5055297;28;20091;-71
2022/01/30 10:47:30;;;;;;;0.10;0.10;;;7.10;99.90;;;;;;5053135;28;20074;-71
2022/01/30 10:49:56;;;;;;;0.00;0.00;;;7.20;99.90;;;;;;5044263;28;20033;-70
2022/01/30 10:52:23;;;;;;;0.10;0.10;;;7.30;99.90;;;;;;5050834;28;20471;-72
2022/01/30 10:54:49;;;;;;;0.10;0.10;;;7.30;99.90;;;;;;5047059;28;20013;-73
2022/01/30 10:57:15;;;;;;;0.10;0.10;;;7.60;99.90;;;;;;5056716;28;20021;-71
2022/01/30 10:59:43;;;;;;;0.10;0.10;;;7.70;99.90;;;;;;5056885;28;20510;-72
2022/01/30 11:02:18;;;;;;;0.10;0.10;;;7.70;99.90;;;;;;5049789;28;20029;-72
2022/01/30 11:04:46;;;;;;;0.10;0.10;;;7.60;99.90;;;;;;5058944;28;20017;-72
2022/01/30 11:07:15;;;;;;;0.10;0.10;;;7.70;99.90;;;;;;5056449;28;20032;-71
2022/01/30 11:10:02;;;;;;;0.10;0.10;;;7.70;99.90;;;;;;5060365;28;20029;-72
2022/01/30 11:12:34;;;;;;;0.10;0.10;;;8.00;99.90;;;;;;5058303;28;20112;-71
2022/01/30 11:18:05;;;;;;;0.10;0.10;;;7.90;99.90;;;;;;4996891;28;20030;-71
2022/01/30 11:20:34;;;;;;;0.10;0.10;;;7.80;99.90;;;;;;5046189;28;20033;-71
2022/01/30 11:23:03;;;;;;;0.10;0.10;;;7.60;99.90;;;;;;5035607;28;20067;-71
2022/01/30 11:25:35;;;;;;;0.10;0.10;;;7.50;99.90;;;;;;5050185;28;20566;-72
2022/01/30 11:28:05;;;;;;;0.10;0.10;;;7.40;99.90;;;;;;5058085;28;20037;-71
2022/01/30 11:30:32;;;;;;;0.10;0.10;;;7.30;99.90;;;;;;5047939;28;20036;-70
2022/01/30 11:32:58;;;;;;;0.10;0.10;;;7.30;99.90;;;;;;5049758;28;20029;-70
2022/01/30 11:35:24;;;;;;;0.10;0.10;;;7.40;99.90;;;;;;5049935;28;20024;-69
2022/01/30 11:37:50;;;;;;;0.10;0.10;;;7.40;99.90;;;;;;5055819;28;20375;-70
2022/01/30 11:40:18;;;;;;;0.10;0.10;;;7.30;99.90;;;;;;5047911;28;20048;-70
2022/01/30 11:42:47;;;;;;;0.10;0.10;;;7.40;99.90;;;;;;5051513;28;20381;-75
2022/01/30 11:45:24;;;;;;;0.10;0.10;;;7.30;99.90;;;;;;5049768;28;20048;-74
2022/01/30 11:47:59;;;;;;;0.38;0.38;;;7.30;99.90;;;;;;5058296;28;20059;-75
2022/01/30 11:50:30;;;;;;;0.10;0.10;;;7.30;99.90;;;;;;5050411;28;20051;-74
2022/01/30 11:53:09;;;;;;;0.10;0.10;;;7.20;99.90;;;;;;5063751;28;20028;-74
2022/01/30 11:55:40;;;;;;;0.10;0.10;;;6.90;99.90;;;;;;5053569;28;20068;-73
2022/01/30 11:58:06;;;;;;;0.10;0.10;;;6.80;99.90;;;;;;5049701;28;20035;-74
2022/01/30 12:00:40;;;;;;;0.10;0.10;;;6.80;99.90;;;;;;5049499;28;20406;-74
2022/01/30 12:03:27;;;;;;;0.10;0.10;;;7.00;99.90;;;;;;5052775;28;20106;-73
2022/01/30 12:05:54;;;;;;;0.10;0.10;;;7.10;99.90;;;;;;5039968;28;20082;-75
2022/01/30 12:08:45;;;;;;;0.10;0.10;;;7.10;99.90;;;;;;5050984;28;20487;-75
2022/01/30 12:11:35;;;;;;;0.10;0.10;;;7.20;99.90;;;;;;5048364;28;20033;-73
2022/01/30 12:14:06;;;;;;;0.10;0.10;;;7.20;99.90;;;;;;5041106;28;20045;-74
2022/01/30 12:16:42;;;;;;;0.00;0.00;;;7.20;99.90;;;;;;5039366;28;20037;-75
2022/01/30 12:19:08;;;;;;;0.10;0.10;;;7.10;99.90;;;;;;5045236;28;20066;-74
2022/01/30 12:21:33;;;;;;;0.10;0.10;;;7.10;99.90;;;;;;5051644;28;20449;-74
2022/01/30 12:24:23;;;;;;;0.10;0.10;;;7.10;99.90;;;;;;5046527;28;20079;-74
2022/01/30 12:26:50;;;;;;;0.10;0.10;;;7.10;99.90;;;;;;5062975;28;20029;-74
2022/01/30 12:29:35;;;;;;;0.10;0.10;;;7.20;99.90;;;;;;5052071;28;20028;-74
2022/01/30 12:32:28;;;;;;;0.10;0.10;;;7.10;99.90;;;;;;5065094;28;20021;-74
2022/01/30 12:34:56;;;;;;;0.10;0.10;;;7.10;99.90;;;;;;5077717;28;20108;-73
2022/01/30 12:37:31;;;;;;;0.10;0.10;;;7.10;99.90;;;;;;5061859;28;20029;-74
2022/01/30 12:40:01;;;;;;;0.10;0.10;;;7.20;99.90;;;;;;5074800;28;20015;-74
2022/01/30 12:42:32;;;;;;;0.25;0.25;;;7.30;99.90;;;;;;5052647;28;20081;-75
2022/01/30 12:45:03;;;;;;;0.10;0.10;;;7.50;99.90;;;;;;5048176;28;20027;-72
2022/01/30 12:47:28;;;;;;;0.10;0.10;;;7.90;99.90;;;;;;5048184;28;20028;-76
2022/01/30 12:49:58;;;;;;;0.10;0.10;;;8.10;99.90;;;;;;5050673;28;20037;-77
2022/01/30 12:54:54;;;;;;;0.10;0.10;;;8.40;99.90;;;;;;5056470;28;20039;-74
2022/01/30 12:57:21;;;;;;;0.20;0.20;;;8.40;99.90;;;;;;5051864;28;20024;-73
2022/01/30 12:59:56;;;;;;;0.20;0.20;;;8.10;99.90;;;;;;5047902;28;20040;-72
2022/01/30 13:02:24;;;;;;;0.10;0.10;;;8.00;99.90;;;;;;5059763;28;20029;-71
2022/01/30 13:05:06;;;;;;;0.10;0.10;;;8.00;99.90;;;;;;5047681;28;20296;-71
2022/01/30 13:07:33;;;;;;;0.10;0.10;;;8.10;99.90;;;;;;5047109;28;20104;-70
2022/01/30 13:10:17;;;;;;;0.10;0.10;;;8.20;99.90;;;;;;5040133;28;20527;-70
2022/01/30 13:12:44;;;;;;;0.10;0.10;;;8.20;99.90;;;;;;5046542;28;20033;-71
2022/01/30 13:15:15;;;;;;;0.10;0.10;;;8.20;99.90;;;;;;5047901;28;20423;-71
2022/01/30 13:17:41;;;;;;;0.10;0.10;;;8.30;99.90;;;;;;5045297;28;20025;-71
2022/01/30 13:20:09;;;;;;;4.80;2.20;;;8.60;99.90;;;;;;5070968;22;20053;-71
2022/01/30 13:22:38;;;;;;;0.10;0.10;;;8.70;99.90;;;;;;5064617;28;20043;-71
2022/01/30 13:25:10;;;;;;;0.10;0.10;;;8.90;99.90;;;;;;5039415;28;20117;-72
2022/01/30 13:27:44;;;;;;;0.10;0.10;;;8.60;99.90;;;;;;5067219;28;20025;-72
2022/01/30 13:30:17;;;;;;;0.10;0.10;;;8.30;99.90;;;;;;5060809;28;20021;-72
2022/01/30 13:32:43;;;;;;;0.10;0.10;;;8.00;99.90;;;;;;5064231;28;20029;-71
2022/01/30 13:35:13;;;;;;;0.10;0.10;;;8.00;99.90;;;;;;5056604;28;20367;-70
2022/01/30 13:37:41;;;;;;;0.10;0.10;;;8.00;99.90;;;;;;5066044;28;20067;-72
2022/01/30 13:40:19;;;;;;;0.10;0.10;;;8.00;99.90;;;;;;5068350;28;20029;-70
2022/01/30 13:48:19;;;;;;;0.10;0.10;;;8.60;99.90;;;;;;5063295;28;20430;-71
2022/01/30 13:50:52;;;;;;;0.10;0.10;;;8.40;99.90;;;;;;5062537;28;20028;-71
2022/01/30 13:53:20;;;;;;;0.20;0.20;;;8.80;99.90;;;;;;5076973;28;20534;-70
2022/01/30 13:56:07;;;;;;;0.10;0.10;;;8.40;99.90;;;;;;5078519;28;20028;-70
2022/01/30 13:58:41;;;;;;;0.10;0.10;;;8.50;99.90;;;;;;5069855;28;20177;-71
2022/01/30 14:01:29;;;;;;;0.10;0.10;;;8.50;99.90;;;;;;5072785;28;20048;-73
2022/01/30 14:04:09;;;;;;;0.20;0.20;;;8.10;99.90;;;;;;5065582;28;20500;-73
2022/01/30 14:06:36;;;;;;;0.10;0.10;;;7.90;99.90;;;;;;5075420;28;20446;-73
2022/01/30 14:09:15;;;;;;;0.10;0.10;;;7.80;99.90;;;;;;5074884;28;20028;-72
2022/01/30 14:11:42;;;;;;;0.10;0.10;;;7.70;99.90;;;;;;5073198;28;20036;-73
2022/01/30 14:14:14;;;;;;;0.10;0.10;;;7.70;99.90;;;;;;5076585;28;20024;-73
2022/01/30 14:16:46;;;;;;;0.10;0.10;;;8.20;99.90;;;;;;5067181;28;20052;-71
2022/01/30 14:19:33;;;;;;;0.10;0.10;;;8.10;99.90;;;;;;5068062;28;20067;-73